Time;durP1;ratioP1;P1;durP2;ratioP2;P2;SDS_P1;SDS_P2;PMS_P1;PMS_P2;Temp;Humidity;BMP_temperature;BMP_pressure;BME280_temperature;BME280_humidity;BME280_pressure;Samples;Min_cycle;Max_cycle;Signal;HPM_P1;HPM_P2
2022/10/03 00:00:07;;;;;;;15.07;4.22;;;;;;;6.22;100.00;102466.56;4914430;29;20055;-85
2022/10/03 00:02:35;;;;;;;12.65;3.65;;;;;;;6.31;100.00;102477.91;4897629;29;20051;-85
2022/10/03 00:05:42;;;;;;;14.52;4.10;;;;;;;6.26;100.00;102483.81;4896156;29;20083;-86
2022/10/03 00:08:40;;;;;;;13.20;3.67;;;;;;;6.21;100.00;102478.22;4869003;29;20060;-86
2022/10/03 00:11:26;;;;;;;12.63;3.58;;;;;;;6.20;100.00;102469.41;4910913;29;20387;-86
2022/10/03 00:14:13;;;;;;;13.50;3.47;;;;;;;6.18;100.00;102473.25;4896213;29;20473;-86
2022/10/03 00:16:52;;;;;;;12.13;3.67;;;;;;;6.15;100.00;102482.47;4895522;29;20365;-86
2022/10/03 00:19:20;;;;;;;14.73;3.63;;;;;;;6.15;100.00;102478.97;4895936;29;20033;-86
2022/10/03 00:21:59;;;;;;;14.75;3.95;;;;;;;6.16;100.00;102473.47;4909569;29;20036;-86
2022/10/03 00:24:30;;;;;;;13.60;3.35;;;;;;;6.13;100.00;102479.16;4914372;29;20036;-86
2022/10/03 00:27:14;;;;;;;13.27;4.00;;;;;;;5.97;100.00;102464.19;4913455;29;20040;-86
2022/10/03 00:29:55;;;;;;;12.45;3.30;;;;;;;6.03;100.00;102489.25;4895137;29;20041;-86
2022/10/03 00:32:51;;;;;;;24.45;4.20;;;;;;;5.98;100.00;102484.47;4894706;29;20031;-85
2022/10/03 00:35:51;;;;;;;15.88;3.92;;;;;;;5.95;100.00;102487.50;4895012;29;20113;-86
2022/10/03 00:38:49;;;;;;;12.23;3.60;;;;;;;5.94;100.00;102493.81;4907249;29;20445;-86
2022/10/03 00:41:43;;;;;;;15.73;3.83;;;;;;;5.94;100.00;102493.00;4894748;29;20297;-86
2022/10/03 00:44:24;;;;;;;13.45;3.50;;;;;;;5.85;100.00;102500.28;4894637;29;20133;-86
2022/10/03 00:47:25;;;;;;;13.73;3.90;;;;;;;5.76;100.00;102491.56;4907243;29;20036;-86
2022/10/03 00:50:05;;;;;;;12.82;4.22;;;;;;;5.82;100.00;102496.16;4913519;29;20032;-86
2022/10/03 00:53:08;;;;;;;14.25;4.03;;;;;;;5.80;100.00;102498.19;4911625;29;20028;-86
2022/10/03 00:55:52;;;;;;;15.38;4.07;;;;;;;5.72;100.00;102509.75;4894679;29;20720;-86
2022/10/03 00:58:39;;;;;;;15.75;4.65;;;;;;;5.72;100.00;102512.41;4895569;29;20036;-86
2022/10/03 01:01:27;;;;;;;12.40;4.00;;;;;;;5.65;100.00;102502.69;4905767;29;20032;-86
2022/10/03 01:04:35;;;;;;;13.47;5.07;;;;;;;5.59;100.00;102505.06;4913077;29;20043;-87
2022/10/03 01:07:23;;;;;;;15.40;4.50;;;;;;;5.67;100.00;102513.94;4895075;29;20318;-86
2022/10/03 01:10:02;;;;;;;14.10;4.03;;;;;;;5.64;100.00;102509.00;4904379;29;20461;-86
2022/10/03 01:13:02;;;;;;;13.40;4.00;;;;;;;5.57;100.00;102508.88;4906108;29;20035;-86
2022/10/03 01:15:37;;;;;;;10.50;4.28;;;;;;;5.59;100.00;102530.81;4894333;29;20024;-85
2022/10/03 01:18:27;;;;;;;13.10;4.53;;;;;;;5.57;100.00;102535.47;4904974;29;20093;-86
2022/10/03 01:21:07;;;;;;;8.90;3.95;;;;;;;5.54;100.00;102533.22;4913660;29;20076;-86
2022/10/03 01:24:03;;;;;;;14.00;4.10;;;;;;;5.46;100.00;102528.81;4913453;29;20234;-86
2022/10/03 01:26:55;;;;;;;8.27;3.58;;;;;;;5.52;100.00;102535.22;4911569;29;20064;-86
2022/10/03 01:32:42;;;;;;;15.10;4.27;;;;;;;5.48;100.00;102544.56;4894678;29;20034;-86
2022/10/03 01:35:23;;;;;;;13.10;4.40;;;;;;;5.49;100.00;102539.03;4906485;29;20993;-86
2022/10/03 01:38:19;;;;;;;15.90;4.35;;;;;;;5.46;100.00;102534.94;4894542;29;20382;-85
2022/10/03 01:41:19;;;;;;;14.25;4.65;;;;;;;5.42;100.00;102546.13;4909909;29;20041;-86
2022/10/03 01:43:57;;;;;;;11.15;4.30;;;;;;;5.40;100.00;102537.50;4900118;29;20039;-86
2022/10/03 01:46:37;;;;;;;9.85;3.88;;;;;;;5.27;100.00;102532.78;4896445;29;20035;-85
2022/10/03 01:49:09;;;;;;;12.45;3.78;;;;;;;5.29;100.00;102538.75;4876394;29;20131;-86
2022/10/03 01:51:55;;;;;;;14.02;4.40;;;;;;;5.23;100.00;102531.50;4906166;29;20084;-86
2022/10/03 01:54:32;;;;;;;14.43;4.55;;;;;;;5.29;100.00;102541.41;4906890;29;20036;-86
2022/10/03 01:57:20;;;;;;;12.73;4.50;;;;;;;5.30;100.00;102537.75;4900472;29;20029;-86
2022/10/03 01:59:56;;;;;;;15.20;4.60;;;;;;;5.27;100.00;102541.59;4897845;29;20339;-86
2022/10/03 02:02:34;;;;;;;11.55;4.50;;;;;;;5.29;100.00;102544.06;4896208;29;20068;-86
2022/10/03 02:05:04;;;;;;;14.27;4.60;;;;;;;5.29;100.00;102536.94;4886322;29;20029;-86
2022/10/03 02:07:59;;;;;;;17.60;4.90;;;;;;;5.25;100.00;102538.28;4908093;29;20135;-87
2022/10/03 02:10:49;;;;;;;13.30;4.72;;;;;;;5.27;100.00;102546.06;4896040;29;20496;-84
2022/10/03 02:13:18;;;;;;;13.50;4.85;;;;;;;5.33;100.00;102548.03;4916250;29;20036;-85
2022/10/03 02:15:53;;;;;;;15.23;4.93;;;;;;;5.25;100.00;102535.63;4914982;29;20036;-84
2022/10/03 02:18:44;;;;;;;18.10;5.20;;;;;;;5.18;100.00;102540.00;4902575;29;20124;-85
2022/10/03 02:21:22;;;;;;;13.10;5.10;;;;;;;5.14;100.00;102534.22;4909678;29;20633;-85
2022/10/03 02:24:03;;;;;;;14.60;4.90;;;;;;;5.18;100.00;102539.19;4906110;29;20059;-85
2022/10/03 02:27:02;;;;;;;14.30;4.67;;;;;;;5.12;100.00;102554.00;4897355;29;20357;-85
2022/10/03 02:29:54;;;;;;;17.23;4.97;;;;;;;5.07;100.00;102543.09;4924100;29;20039;-85
2022/10/03 02:32:31;;;;;;;15.07;4.78;;;;;;;5.07;100.00;102549.22;4915157;29;20031;-85
2022/10/03 02:35:34;;;;;;;10.32;4.38;;;;;;;5.00;100.00;102527.88;4910149;29;20063;-84
2022/10/03 02:38:33;;;;;;;15.13;4.80;;;;;;;5.07;100.00;102548.41;4873487;29;20036;-85
2022/10/03 02:41:15;;;;;;;15.77;4.75;;;;;;;4.98;100.00;102529.88;4902739;29;20032;-85
2022/10/03 02:44:06;;;;;;;15.05;4.53;;;;;;;5.02;100.00;102551.63;4897077;29;20032;-85
2022/10/03 02:46:32;;;;;;;13.45;4.63;;;;;;;4.97;100.00;102553.97;4914151;29;20139;-85
2022/10/03 02:49:15;;;;;;;23.57;5.43;;;;;;;5.02;100.00;102548.13;4913466;29;20106;-85
2022/10/03 02:52:17;;;;;;;14.38;5.15;;;;;;;5.04;100.00;102543.44;4914207;29;20128;-85
2022/10/03 02:55:22;;;;;;;15.63;5.47;;;;;;;4.93;100.00;102526.91;4897634;29;20036;-84
2022/10/03 02:58:18;;;;;;;15.83;4.97;;;;;;;4.93;100.00;102529.56;4911046;29;20055;-85
2022/10/03 03:01:22;;;;;;;18.73;5.27;;;;;;;4.97;100.00;102546.81;4916032;29;20701;-85
2022/10/03 03:04:25;;;;;;;15.27;5.13;;;;;;;4.99;100.00;102547.47;4916054;29;20123;-85
2022/10/03 03:07:12;;;;;;;13.93;5.03;;;;;;;5.03;100.00;102547.91;4909037;29;20028;-84
2022/10/03 03:10:14;;;;;;;10.95;5.55;;;;;;;4.96;100.00;102536.38;4902217;29;20081;-85
2022/10/03 03:13:03;;;;;;;13.60;5.32;;;;;;;4.96;100.00;102537.19;4897191;29;20039;-84
2022/10/03 03:15:40;;;;;;;19.20;5.60;;;;;;;4.91;100.00;102544.03;4903040;29;20546;-85
2022/10/03 03:18:18;;;;;;;13.85;5.18;;;;;;;4.87;100.00;102545.38;4907702;29;20037;-84
2022/10/03 03:21:02;;;;;;;17.50;5.80;;;;;;;4.81;100.00;102549.59;4896580;29;20828;-85
2022/10/03 03:23:42;;;;;;;13.48;5.38;;;;;;;4.83;100.00;102551.09;4887024;29;20424;-84
2022/10/03 03:26:29;;;;;;;14.73;5.53;;;;;;;4.77;100.00;102542.97;4914012;29;20028;-85
2022/10/03 03:29:19;;;;;;;18.23;5.87;;;;;;;4.89;100.00;102556.66;4912141;29;20664;-85
2022/10/03 03:31:49;;;;;;;13.52;5.70;;;;;;;4.84;100.00;102538.63;4912482;29;20107;-85
2022/10/03 03:34:29;;;;;;;14.35;5.70;;;;;;;4.82;100.00;102544.13;4907773;29;20035;-86
2022/10/03 03:36:59;;;;;;;13.88;6.57;;;;;;;4.87;100.00;102545.38;4899397;29;20037;-85
2022/10/03 03:39:53;;;;;;;15.00;5.95;;;;;;;4.85;100.00;102550.91;4903995;29;20048;-85
2022/10/03 03:42:22;;;;;;;15.93;5.97;;;;;;;4.88;100.00;102558.50;4915354;29;20039;-86
2022/10/03 03:45:06;;;;;;;19.67;6.55;;;;;;;4.80;100.00;102558.56;4914489;29;20036;-85
2022/10/03 03:48:09;;;;;;;17.30;5.45;;;;;;;4.75;100.00;102564.41;4880016;29;20044;-85
2022/10/03 03:51:11;;;;;;;13.50;5.68;;;;;;;4.75;100.00;102560.94;4896089;29;20071;-86
2022/10/03 03:54:31;;;;;;;17.40;5.70;;;;;;;4.72;100.00;102550.66;4896225;29;20048;-85
2022/10/03 03:57:25;;;;;;;17.37;5.37;;;;;;;4.74;100.00;102564.59;4837792;29;20348;-86
2022/10/03 04:00:19;;;;;;;14.18;5.75;;;;;;;4.69;100.00;102559.78;4904383;29;20055;-86
2022/10/03 04:03:06;;;;;;;14.35;5.85;;;;;;;4.71;100.00;102563.09;4914219;29;20031;-86
2022/10/03 04:05:56;;;;;;;18.80;5.88;;;;;;;4.72;100.00;102566.59;4911469;29;20039;-86
2022/10/03 04:08:59;;;;;;;17.27;5.53;;;;;;;4.66;100.00;102560.97;4912587;29;20046;-86
2022/10/03 04:12:06;;;;;;;19.13;5.80;;;;;;;4.64;100.00;102562.16;4901601;29;20044;-85
2022/10/03 04:14:45;;;;;;;16.92;5.75;;;;;;;4.62;100.00;102564.97;4891919;29;20106;-85
2022/10/03 04:20:49;;;;;;;13.05;6.13;;;;;;;4.68;100.00;102569.59;4897791;29;20059;-85
2022/10/03 04:23:30;;;;;;;13.17;5.80;;;;;;;4.75;100.00;102571.56;4880493;29;20396;-85
2022/10/03 04:26:10;;;;;;;17.40;6.40;;;;;;;4.85;100.00;102567.66;4914041;29;20569;-85
2022/10/03 04:28:58;;;;;;;17.88;6.68;;;;;;;4.97;100.00;102573.38;4905952;29;20039;-86
2022/10/03 04:31:33;;;;;;;18.13;6.75;;;;;;;5.11;100.00;102577.09;4881197;29;20749;-86
2022/10/03 04:34:20;;;;;;;23.05;6.88;;;;;;;5.12;100.00;102569.94;4894717;29;20033;-86
2022/10/03 04:37:24;;;;;;;17.45;6.75;;;;;;;5.11;100.00;102578.94;4900821;29;20030;-86
2022/10/03 04:40:10;;;;;;;20.02;6.50;;;;;;;4.98;100.00;102576.88;4894305;29;20086;-86
2022/10/03 04:42:59;;;;;;;20.25;5.85;;;;;;;4.92;100.00;102570.44;4886870;29;20564;-86
2022/10/03 04:45:52;;;;;;;17.23;5.97;;;;;;;4.85;100.00;102566.84;4909051;29;20040;-86
2022/10/03 04:48:28;;;;;;;13.27;5.85;;;;;;;4.87;100.00;102578.09;4899270;29;20037;-86
2022/10/03 04:51:00;;;;;;;12.90;5.27;;;;;;;4.81;100.00;102574.34;4896201;29;20075;-87
2022/10/03 04:53:52;;;;;;;18.10;5.70;;;;;;;4.77;100.00;102578.34;4887409;29;20828;-86
2022/10/03 04:56:26;;;;;;;15.68;5.68;;;;;;;4.77;100.00;102570.38;4899840;29;20087;-86
2022/10/03 04:59:07;;;;;;;15.15;5.80;;;;;;;4.75;100.00;102571.56;4900039;29;20064;-86
2022/10/03 05:01:44;;;;;;;19.83;6.30;;;;;;;4.69;100.00;102563.28;4898167;29;20037;-86
2022/10/03 05:04:29;;;;;;;12.40;5.82;;;;;;;4.75;100.00;102566.25;4907354;29;20028;-86
2022/10/03 05:07:20;;;;;;;11.30;5.60;;;;;;;4.81;100.00;102576.16;4879103;29;20300;-87
2022/10/03 05:09:55;;;;;;;19.27;6.28;;;;;;;4.81;100.00;102571.69;4905219;29;20476;-88
2022/10/03 05:12:49;;;;;;;18.25;6.68;;;;;;;4.77;100.00;102572.19;4897493;29;20111;-89
2022/10/03 05:15:46;;;;;;;16.10;6.28;;;;;;;4.78;100.00;102587.13;4896552;29;20093;-88
2022/10/03 05:18:28;;;;;;;15.90;5.83;;;;;;;4.73;100.00;102584.19;4907624;29;20036;-89
2022/10/03 05:21:04;;;;;;;11.53;6.13;;;;;;;4.67;100.00;102588.34;4880176;29;20700;-89
2022/10/03 05:24:07;;;;;;;16.52;6.50;;;;;;;4.59;100.00;102583.91;4898304;29;20025;-88
2022/10/03 05:26:45;;;;;;;13.32;5.45;;;;;;;4.51;100.00;102586.63;4897825;29;20029;-87
2022/10/03 05:29:40;;;;;;;15.65;6.78;;;;;;;4.54;100.00;102583.63;4904899;29;20044;-87
2022/10/03 05:32:29;;;;;;;16.67;6.80;;;;;;;4.51;100.00;102597.25;4890392;29;20092;-87
2022/10/03 05:34:54;;;;;;;19.58;6.40;;;;;;;4.55;100.00;102590.59;4919166;29;20032;-86
2022/10/03 05:37:58;;;;;;;15.77;6.80;;;;;;;4.44;100.00;102583.00;4922157;29;20073;-86
2022/10/03 05:40:27;;;;;;;14.82;6.28;;;;;;;4.41;100.00;102570.91;4925714;29;20028;-87
2022/10/03 05:42:58;;;;;;;17.40;6.93;;;;;;;4.57;100.00;102603.69;4903633;29;20060;-86
2022/10/03 05:45:42;;;;;;;16.98;6.85;;;;;;;4.62;100.00;102602.16;4904387;29;20394;-90
2022/10/03 05:48:36;;;;;;;18.40;7.70;;;;;;;4.74;100.00;102605.25;4915379;29;20412;-92
2022/10/03 05:51:40;;;;;;;20.90;8.07;;;;;;;4.83;100.00;102606.88;4899929;29;20028;-92
2022/10/03 05:59:50;;;;;;;16.60;7.38;;;;;;;4.86;100.00;102611.00;6007782;23;20072;-90
2022/10/03 06:02:51;;;;;;;24.52;6.55;;;;;;;4.80;100.00;102611.69;4899943;29;20084;-90
2022/10/03 06:05:31;;;;;;;14.80;6.50;;;;;;;4.72;100.00;102587.84;4890927;29;20032;-90
2022/10/03 06:08:33;;;;;;;20.08;7.05;;;;;;;4.84;100.00;102624.44;4887759;29;20041;-90
2022/10/03 06:11:28;;;;;;;17.70;6.03;;;;;;;4.85;100.00;102619.97;4903267;29;20191;-88
2022/10/03 06:14:23;;;;;;;15.80;6.13;;;;;;;4.89;100.00;102626.59;4904185;29;20033;-90
2022/10/03 06:17:17;;;;;;;14.25;5.85;;;;;;;4.92;100.00;102628.91;4894193;29;20031;-89
2022/10/03 06:19:55;;;;;;;17.47;6.40;;;;;;;4.93;100.00;102611.91;4886852;29;20065;-88
2022/10/03 06:22:29;;;;;;;19.10;6.93;;;;;;;5.07;100.00;102626.28;4882696;29;20328;-91
2022/10/03 06:25:28;;;;;;;16.88;6.50;;;;;;;5.09;100.00;102631.44;4883967;29;20044;-91
2022/10/03 06:28:17;;;;;;;22.05;7.30;;;;;;;5.18;100.00;102634.88;4872322;29;20310;-96
2022/10/03 06:30:52;;;;;;;18.35;7.30;;;;;;;5.26;100.00;102626.81;4897572;29;20047;-92
2022/10/03 06:33:48;;;;;;;18.13;7.25;;;;;;;5.26;100.00;102634.78;4890890;29;20025;-92
2022/10/03 06:36:20;;;;;;;18.25;7.03;;;;;;;5.26;100.00;102637.44;4897278;29;20041;-96
2022/10/03 06:39:31;;;;;;;15.77;6.72;;;;;;;5.25;100.00;102644.63;4892594;29;20057;-86
2022/10/03 06:42:08;;;;;;;15.98;7.00;;;;;;;5.25;100.00;102635.81;4899014;29;20029;-92
2022/10/03 06:45:05;;;;;;;21.10;7.20;;;;;;;5.22;100.00;102647.63;4896182;29;20053;-96
2022/10/03 06:48:05;;;;;;;24.93;7.83;;;;;;;5.33;100.00;102640.22;4899662;29;20044;-92
2022/10/03 06:51:00;;;;;;;20.87;7.23;;;;;;;5.41;100.00;102640.19;4890017;29;20305;-93
2022/10/03 06:53:39;;;;;;;16.38;7.35;;;;;;;5.49;100.00;102629.47;4883064;29;20071;-91
2022/10/03 06:56:22;;;;;;;16.02;7.63;;;;;;;5.57;100.00;102645.34;4881778;29;20061;-91
2022/10/03 06:59:04;;;;;;;24.00;7.68;;;;;;;5.64;100.00;102644.66;4879911;29;20056;-92
2022/10/03 07:01:51;;;;;;;21.08;8.70;;;;;;;5.75;100.00;102647.69;4882112;29;20108;-91
2022/10/03 07:04:52;;;;;;;29.20;9.32;;;;;;;5.87;100.00;102639.28;4881363;29;20044;-90
2022/10/03 07:07:32;;;;;;;25.25;9.07;;;;;;;6.04;100.00;102643.44;4877959;29;20397;-90
2022/10/03 07:10:09;;;;;;;26.02;10.45;;;;;;;6.17;100.00;102658.78;4879100;29;20041;-91
2022/10/03 07:12:51;;;;;;;26.25;10.43;;;;;;;6.24;100.00;102663.34;4881328;29;20039;-91
2022/10/03 07:15:48;;;;;;;24.70;10.07;;;;;;;6.31;100.00;102664.28;4882029;29;20040;-91
2022/10/03 07:18:34;;;;;;;27.87;10.80;;;;;;;6.44;100.00;102648.47;4882867;29;20312;-91
2022/10/03 07:21:50;;;;;;;35.20;12.32;;;;;;;6.69;100.00;102658.84;4878843;29;20039;-91
2022/10/03 07:25:02;;;;;;;30.02;11.70;;;;;;;6.76;100.00;102657.06;4856873;29;20029;-90
2022/10/03 07:27:50;;;;;;;34.22;11.80;;;;;;;6.86;100.00;102658.63;4869509;29;20025;-90
2022/10/03 07:30:20;;;;;;;36.28;12.18;;;;;;;6.90;100.00;102646.56;4879110;29;20090;-90
2022/10/03 07:33:21;;;;;;;35.00;12.80;;;;;;;7.14;100.00;102666.72;4879476;29;20446;-91
2022/10/03 07:39:17;;;;;;;33.15;13.15;;;;;;;7.39;100.00;102669.03;4875787;29;20116;-91
2022/10/03 07:42:12;;;;;;;40.47;12.80;;;;;;;7.46;100.00;102669.88;4863728;29;20052;-91
2022/10/03 07:44:46;;;;;;;30.23;13.40;;;;;;;7.66;100.00;102671.91;4855472;29;20048;-91
2022/10/03 07:47:32;;;;;;;40.40;14.60;;;;;;;7.72;100.00;102663.94;4862830;29;20316;-91
2022/10/03 07:50:19;;;;;;;40.30;16.00;;;;;;;7.95;100.00;102684.25;4881080;29;20104;-91
2022/10/03 07:53:20;;;;;;;39.22;16.05;;;;;;;7.94;100.00;102677.25;4879122;29;20033;-91
2022/10/03 07:55:53;;;;;;;39.42;14.25;;;;;;;8.03;100.00;102700.09;4840584;29;20091;-92
2022/10/03 07:58:53;;;;;;;33.47;14.63;;;;;;;8.11;100.00;102695.66;4876612;29;20028;-91
2022/10/03 08:01:47;;;;;;;36.80;13.80;;;;;;;8.21;100.00;102706.81;4877838;29;20387;-91
2022/10/03 08:04:43;;;;;;;36.95;14.90;;;;;;;8.34;100.00;102706.91;4880445;29;20032;-91
2022/10/03 08:07:20;;;;;;;44.13;14.48;;;;;;;8.44;100.00;102703.03;4878727;29;20044;-91
2022/10/03 08:10:20;;;;;;;38.88;15.02;;;;;;;8.54;100.00;102694.69;4877798;29;20112;-91
2022/10/03 08:13:11;;;;;;;40.03;14.30;;;;;;;8.64;100.00;102704.00;4880480;29;20040;-92
2022/10/03 08:16:04;;;;;;;39.70;14.33;;;;;;;8.67;100.00;102699.28;4878281;29;20298;-91
2022/10/03 08:19:02;;;;;;;34.00;13.32;;;;;;;8.77;100.00;102710.41;4879170;29;20418;-92
2022/10/03 08:21:28;;;;;;;34.78;13.18;;;;;;;8.82;100.00;102705.28;4830497;29;20041;-91
2022/10/03 08:24:08;;;;;;;38.97;13.05;;;;;;;8.92;100.00;102695.06;4860929;29;20061;-91
2022/10/03 08:26:33;;;;;;;33.30;13.80;;;;;;;9.09;100.00;102689.34;4860609;29;20052;-91
2022/10/03 08:29:22;;;;;;;40.73;13.63;;;;;;;9.10;100.00;102682.97;4870764;29;20045;-91
2022/10/03 08:32:26;;;;;;;38.08;13.38;;;;;;;9.24;100.00;102691.84;4868083;29;20025;-91
2022/10/03 08:35:10;;;;;;;34.40;13.53;;;;;;;9.40;100.00;102690.63;4866353;29;20043;-90
2022/10/03 08:38:02;;;;;;;41.67;13.83;;;;;;;9.59;100.00;102694.34;4875114;29;20325;-93
2022/10/03 08:41:05;;;;;;;36.13;14.70;;;;;;;9.76;100.00;102700.13;4874250;29;20109;-93
2022/10/03 08:46:12;;;;;;;35.55;13.13;;;;;;;9.99;100.00;102702.38;5693686;23;20052;-92
2022/10/03 08:49:13;;;;;;;41.85;13.35;;;;;;;10.08;100.00;102702.97;4919013;29;20139;-87
2022/10/03 08:51:41;;;;;;;27.88;12.23;;;;;;;10.20;100.00;102699.69;4922622;29;20031;-91
2022/10/03 08:57:09;;;;;;;33.35;11.80;;;;;;;10.47;100.00;102700.47;4893217;29;20052;-95
2022/10/03 09:00:01;;;;;;;27.08;11.32;;;;;;;10.38;100.00;102670.41;4893956;29;20065;-95
2022/10/03 09:06:01;;;;;;;26.37;10.60;;;;;;;10.97;100.00;102713.22;4942453;23;20336;-96
2022/10/03 09:09:04;;;;;;;22.00;9.73;;;;;;;11.19;100.00;102703.03;4916964;29;20051;-95
2022/10/03 09:15:01;;;;;;;14.02;6.28;;;;;;;11.41;100.00;102710.69;4957466;24;20060;-94
2022/10/03 09:17:48;;;;;;;13.45;4.93;;;;;;;11.51;100.00;102718.28;4908862;29;20458;-95
2022/10/03 09:20:19;;;;;;;19.38;3.90;;;;;;;11.59;100.00;102720.69;4919529;29;20036;-93
2022/10/03 09:23:23;;;;;;;13.32;2.53;;;;;;;11.84;100.00;102714.53;4939399;29;20032;-95
2022/10/03 09:25:54;;;;;;;14.88;3.00;;;;;;;12.12;100.00;102715.94;4920440;29;20122;-94
2022/10/03 09:28:58;;;;;;;12.68;2.10;;;;;;;12.42;100.00;102723.28;4908852;29;20033;-94
2022/10/03 09:31:58;;;;;;;11.40;2.60;;;;;;;12.66;100.00;102709.97;4919579;29;20036;-93
2022/10/03 09:34:49;;;;;;;8.27;2.40;;;;;;;12.87;100.00;102709.50;4907660;29;20303;-93
2022/10/03 09:38:08;;;;;;;13.75;2.00;;;;;;;13.06;100.00;102709.47;4903608;29;20028;-96
2022/10/03 09:40:52;;;;;;;8.48;1.83;;;;;;;13.16;100.00;102701.63;4910388;29;20033;-93
2022/10/03 09:43:56;;;;;;;11.18;1.70;;;;;;;13.36;100.00;102700.53;4904468;29;20032;-92
2022/10/03 09:46:33;;;;;;;10.75;1.63;;;;;;;13.44;100.00;102686.78;4913496;29;20384;-90
2022/10/03 09:49:11;;;;;;;11.63;1.83;;;;;;;13.57;100.00;102698.38;4891318;29;20096;-92
2022/10/03 09:51:56;;;;;;;9.63;1.90;;;;;;;13.60;100.00;102700.59;4902255;29;20477;-91
2022/10/03 09:54:24;;;;;;;8.80;1.42;;;;;;;13.58;100.00;102690.06;4912202;29;20020;-93
2022/10/03 09:57:21;;;;;;;8.32;1.65;;;;;;;13.60;100.00;102677.16;4902640;29;20401;-92
2022/10/03 10:00:21;;;;;;;8.83;1.63;;;;;;;13.76;100.00;102689.13;4911430;29;20043;-92
2022/10/03 10:03:20;;;;;;;6.73;1.53;;;;;;;13.87;100.00;102690.19;4918169;29;20740;-90
2022/10/03 10:05:54;;;;;;;8.52;1.30;;;;;;;13.89;100.00;102687.25;4919931;29;20057;-92
2022/10/03 10:08:22;;;;;;;5.88;1.20;;;;;;;13.94;100.00;102684.69;4918872;29;20036;-92
2022/10/03 10:11:00;;;;;;;12.35;1.92;;;;;;;14.00;100.00;102688.31;4903331;29;20037;-92
2022/10/03 10:14:03;;;;;;;11.43;1.80;;;;;;;14.02;100.00;102689.72;4903807;29;20036;-93
2022/10/03 10:17:06;;;;;;;10.90;1.75;;;;;;;14.06;100.00;102681.97;4918516;29;20099;-93
2022/10/03 10:19:31;;;;;;;7.72;1.30;;;;;;;14.06;100.00;102684.69;4910496;29;20032;-94
2022/10/03 10:22:10;;;;;;;7.50;1.40;;;;;;;14.08;100.00;102685.28;4903741;29;20040;-94
2022/10/03 10:25:07;;;;;;;7.03;1.70;;;;;;;14.00;100.00;102694.53;4893719;29;20056;-94
2022/10/03 10:28:10;;;;;;;8.32;1.60;;;;;;;13.88;100.00;102691.84;4910089;29;20037;-96
2022/10/03 10:31:18;;;;;;;9.03;0.93;;;;;;;13.91;100.00;102690.53;4900516;29;20048;-93
2022/10/03 10:34:18;;;;;;;7.97;1.40;;;;;;;13.98;100.00;102687.72;4884449;29;20319;-96
2022/10/03 10:36:49;;;;;;;9.48;1.40;;;;;;;14.02;100.00;102688.91;4909500;29;20970;-93
2022/10/03 10:39:32;;;;;;;11.38;2.20;;;;;;;14.12;100.00;102683.75;4901900;29;20024;-93
2022/10/03 10:42:37;;;;;;;7.93;1.35;;;;;;;14.27;100.00;102680.53;4905572;29;20037;-94
2022/10/03 10:45:23;;;;;;;10.02;1.60;;;;;;;14.27;100.00;102675.16;4901795;29;20037;-92
2022/10/03 10:48:17;;;;;;;7.10;1.40;;;;;;;14.11;100.00;102671.31;4904755;29;20515;-94
2022/10/03 10:51:09;;;;;;;6.93;1.10;;;;;;;14.16;100.00;102687.59;4916904;29;20036;-92
2022/10/03 10:54:00;;;;;;;8.80;1.60;;;;;;;14.19;100.00;102691.72;4908815;29;20029;-93
2022/10/03 10:56:59;;;;;;;10.30;1.58;;;;;;;14.34;100.00;102680.41;4899741;29;20064;-92
2022/10/03 10:59:45;;;;;;;10.10;1.57;;;;;;;14.62;100.00;102695.81;4901967;29;20134;-91
2022/10/03 11:02:29;;;;;;;6.88;1.27;;;;;;;14.90;97.97;102682.59;4912856;29;20544;-93
2022/10/03 11:05:35;;;;;;;6.57;1.65;;;;;;;15.21;99.53;102693.97;4909582;29;20060;-93
2022/10/03 11:08:28;;;;;;;9.98;1.50;;;;;;;15.35;95.53;102694.44;4896595;29;20131;-92
2022/10/03 11:11:19;;;;;;;4.78;1.30;;;;;;;15.40;92.25;102694.53;4920228;29;20040;-92
2022/10/03 11:14:09;;;;;;;11.95;1.40;;;;;;;15.41;93.64;102688.91;4900471;29;20040;-93
2022/10/03 11:16:53;;;;;;;6.55;1.58;;;;;;;15.57;89.57;102689.97;4904784;29;20064;-92
2022/10/03 11:19:40;;;;;;;8.70;1.35;;;;;;;15.72;90.60;102670.47;4905765;29;20032;-93
2022/10/03 11:22:49;;;;;;;9.20;2.07;;;;;;;15.93;90.16;102673.50;4908214;29;20039;-92
2022/10/03 11:25:32;;;;;;;12.48;1.50;;;;;;;16.11;87.44;102666.97;4901897;29;20500;-92
2022/10/03 11:28:52;;;;;;;7.10;1.60;;;;;;;16.24;89.01;102673.91;4912941;29;20029;-93
2022/10/03 11:31:47;;;;;;;8.23;1.42;;;;;;;16.48;88.24;102665.53;4918861;29;20017;-95
2022/10/03 11:42:46;;;;;;;4.13;1.10;;;;;;;16.91;83.33;102673.84;5359567;23;20071;-93
2022/10/03 11:45:24;;;;;;;6.65;1.30;;;;;;;17.01;81.80;102671.25;4914450;29;20048;-93
2022/10/03 11:48:11;;;;;;;5.73;1.30;;;;;;;17.15;80.64;102673.53;4918608;29;20040;-95
2022/10/03 11:50:49;;;;;;;8.88;1.60;;;;;;;17.20;80.75;102682.53;4916544;29;20060;-92
2022/10/03 11:53:45;;;;;;;8.27;1.48;;;;;;;17.27;80.41;102687.72;4915771;29;20052;-91
2022/10/03 11:56:39;;;;;;;7.32;1.40;;;;;;;17.17;76.39;102674.06;4908571;29;20033;-90
2022/10/03 11:59:39;;;;;;;7.07;1.23;;;;;;;17.19;78.54;102672.75;4911186;29;20053;-91
2022/10/03 12:02:04;;;;;;;7.60;1.60;;;;;;;17.26;75.07;102673.34;4913289;29;20400;-93
2022/10/03 12:04:55;;;;;;;6.50;1.60;;;;;;;17.64;77.40;102672.53;4916264;29;20064;-88
2022/10/03 12:08:55;;;;;;;9.52;1.50;;;;;;;18.11;75.67;102668.22;4909520;29;20043;-91
2022/10/03 12:10:58;;;;;;;8.00;1.40;;;;;;;18.59;71.57;102668.13;4899096;29;20071;-93
2022/10/03 12:14:01;;;;;;;9.90;1.80;;;;;;;18.66;69.37;102671.41;4917184;29;20091;-90
2022/10/03 12:17:22;;;;;;;7.23;1.27;;;;;;;18.61;70.59;102660.53;4902900;29;20650;-91
2022/10/03 12:20:04;;;;;;;8.20;1.40;;;;;;;18.95;68.43;102667.44;4896269;29;20092;-88
2022/10/03 13:33:28;;;;;;;8.27;1.70;;;;;;;18.83;63.58;102588.91;4921988;29;20344;-87
2022/10/03 13:36:25;;;;;;;6.57;1.50;;;;;;;18.82;64.43;102611.69;4934023;29;20044;-88
2022/10/03 13:42:38;;;;;;;6.88;1.50;;;;;;;18.72;65.50;102601.66;4939834;23;20070;-88
2022/10/03 13:48:27;;;;;;;8.07;1.50;;;;;;;18.34;59.91;102607.28;4935532;28;20034;-88
2022/10/03 17:31:06;;;;;;;11.60;3.90;;;;;;;13.35;98.49;102448.50;5191765;23;20148;-96
2022/10/03 17:37:35;;;;;;;9.25;4.57;;;;;;;13.25;99.90;102445.59;4857518;29;20081;-95
2022/10/03 17:43:59;;;;;;;12.80;4.93;;;;;;;13.18;100.00;102449.22;4853969;29;20093;-96
2022/10/03 17:49:58;;;;;;;11.80;4.40;;;;;;;12.98;100.00;102427.25;4856832;29;20330;-95
2022/10/03 17:52:29;;;;;;;14.60;4.20;;;;;;;12.96;100.00;102421.28;4851880;29;20175;-94
2022/10/03 18:38:54;;;;;;;9.60;3.72;;;;;;;12.08;100.00;102432.59;5304422;23;20064;-90
2022/10/03 18:52:56;;;;;;;16.80;6.07;;;;;;;12.02;100.00;102420.91;4755028;30;20147;-92
2022/10/03 19:24:46;;;;;;;14.07;7.15;;;;;;;11.05;100.00;102387.56;4961906;23;20079;-89
2022/10/03 19:28:15;;;;;;;16.50;8.00;;;;;;;11.11;100.00;102410.03;4912637;29;20047;-90
2022/10/03 19:44:16;;;;;;;18.73;7.83;;;;;;;10.50;100.00;102356.13;4809251;29;20481;-91
2022/10/03 19:47:30;;;;;;;16.45;7.10;;;;;;;10.64;100.00;102379.09;5015741;23;20056;-91
2022/10/03 19:50:03;;;;;;;12.88;6.93;;;;;;;10.56;100.00;102366.00;4894082;29;20495;-91
2022/10/03 19:52:44;;;;;;;19.92;6.93;;;;;;;10.59;100.00;102365.56;4846864;29;20111;-91
2022/10/03 19:55:37;;;;;;;14.52;6.28;;;;;;;10.78;100.00;102376.28;4894963;29;20036;-91
2022/10/03 19:58:51;;;;;;;14.20;6.40;;;;;;;10.65;100.00;102359.28;4894349;29;20032;-91
2022/10/03 20:02:03;;;;;;;17.02;5.97;;;;;;;10.88;100.00;102393.50;4869875;29;20057;-91
2022/10/03 20:27:59;;;;;;;14.27;5.80;;;;;;;11.09;100.00;102386.09;5396608;23;20122;-91
2022/10/03 20:30:47;;;;;;;14.38;6.20;;;;;;;11.14;100.00;102390.78;4894646;29;20025;-91
2022/10/03 20:33:20;;;;;;;14.90;6.25;;;;;;;11.13;100.00;102391.84;4890972;29;20056;-91
2022/10/03 20:36:12;;;;;;;14.38;6.53;;;;;;;11.13;100.00;102402.59;4886495;29;20440;-91